Holmsk, Russia
Current Conditions -  °F | °C
As of 1:30 PM on Sunday 26 Oct 2014 (Local Time) from UHSS Reporting Station
Rain Showers Rain Showers  
Wind Chill: 39°   Ceiling: 2000
Heat Index: 43°   Visibility: 3mi
Dew Point: 43°   Wind: 7mph
Humidity: 100%   Direction: 340°NNW
Pressure: 29.94"   Gusts: NA
Location:  47.05°N, 142.06°E
Report Text: UHSS 260230Z 34003MPS 5000 -SHRA BR BKN020CB 06/06 Q1014 WSRWY01 NOSIG RMK MT OBSC QFE760/1013 01250350
Loading
Personal Weather Stations






























Interactive Weather Map
Tropical Storm Tracking
New forecast layout! Learn more

10-Day Weather Forecast

Advertisements
Track Severe Weather on mobile